.
WxDataArchive / Data Records for 2015-08-03
2015-08-02 August 2015 2015-08-04

Data Records for Monday, 03 August 2015

Time	Temp	Chill	HIndex	Humid	Dewpt	 Wind 	HiWind	WindDir	Rain 	Barom
-----	----	-----	------	-----	-----	------	------	-------	-----	-----
00:00	78.8	78.8	80.7	64	65.6	1	4	248	0.00	29.700 
00:05	78.8	78.8	80.7	64	65.6	1	2	248	0.00	29.700 
00:10	78.8	78.8	80.7	64	65.6	1	3	248	0.00	29.700 
00:15	78.8	78.8	80.7	64	65.6	1	4	248	0.00	29.688 
00:20	78.6	78.6	80.5	64	65.4	1	3	270	0.00	29.688 
00:25	78.6	78.6	80.6	65	65.8	1	4	315	0.00	29.688 
00:30	78.6	78.6	80.6	65	65.8	1	4	292	0.00	29.698 
00:35	78.5	78.5	80.4	65	65.7	1	4	270	0.00	29.698 
00:40	78.5	78.5	80.4	65	65.7	0	1	270	0.00	29.698 
00:45	78.3	78.3	80.2	65	65.5	0	3	270	0.00	29.687 
00:50	78.3	78.3	80.2	65	65.5	1	3	292	0.00	29.687 
00:55	78.3	78.3	80.2	65	65.5	0	5	248	0.00	29.687 
01:00	78.1	78.1	80.0	65	65.4	0	2	248	0.00	29.702 
01:05	78.1	78.1	80.0	66	65.8	1	3	248	0.00	29.702 
01:10	78.3	78.3	80.2	66	66.0	1	5	270	0.00	29.702 
01:15	75.8	75.8	77.9	56	59.0	3	9	315	0.00	29.763 
01:20	72.7	72.7	72.7	62	58.9	3	10	315	0.00	29.763 
01:25	70.8	70.8	70.8	64	58.0	2	6	315	0.00	29.763 
01:30	68.9	68.9	68.9	70	58.7	3	17	315	0.00	29.788 
01:35	66.8	66.8	66.8	77	59.3	3	9	315	0.00	29.788 
01:40	65.5	65.5	65.5	81	59.5	1	5	292	0.01	29.788 
01:45	64.5	64.5	64.5	84	59.6	1	5	270	0.01	29.814 
01:50	63.9	63.9	63.9	87	59.9	1	3	292	0.03	29.814 
01:55	63.5	63.5	63.5	88	59.9	0	1	292	0.10	29.814 
02:00	63.4	63.4	63.4	89	60.1	0	3	292	0.09	29.820 
02:05	63.2	63.2	63.2	90	60.2	1	3	292	0.09	29.820 
02:10	63.1	63.1	63.1	90	60.1	1	3	292	0.04	29.820 
02:15	62.7	62.7	62.7	91	60.0	0	3	292	0.02	29.799 
02:20	62.6	62.6	62.6	91	59.9	0	2	292	0.01	29.799 
02:25	62.6	62.6	62.6	92	60.2	0	2	292	0.01	29.799 
02:30	62.6	62.6	62.6	92	60.2	0	1	292	0.01	29.806 
02:35	62.4	62.4	62.4	92	60.0	0	1	292	0.02	29.806 
02:40	62.4	62.4	62.4	92	60.0	0	1	292	0.01	29.806 
02:45	62.4	62.4	62.4	93	60.3	0	0	---	0.01	29.800 
02:50	62.6	62.6	62.6	93	60.5	0	0	---	0.01	29.800 
02:55	62.6	62.6	62.6	93	60.5	0	1	292	0.00	29.800 
03:00	62.6	62.6	62.6	93	60.5	0	1	292	0.00	29.765 
03:05	62.7	62.7	62.7	93	60.6	0	2	292	0.01	29.765 
03:10	62.7	62.7	62.7	93	60.6	0	3	292	0.00	29.765 
03:15	62.7	62.7	62.7	94	60.9	0	3	292	0.01	29.742 
03:20	62.7	62.7	62.7	94	60.9	0	4	292	0.00	29.742 
03:25	62.9	62.9	62.9	94	61.1	1	3	292	0.00	29.742 
03:30	62.9	62.9	62.9	94	61.1	1	3	112	0.00	29.695 
03:35	62.9	62.9	62.9	94	61.1	1	4	112	0.01	29.695 
03:40	62.9	62.9	62.9	94	61.1	1	3	112	0.00	29.695 
03:45	62.9	62.9	62.9	94	61.1	1	6	90	0.00	29.645 
03:50	62.7	62.7	62.7	94	60.9	0	1	90	0.00	29.645 
03:55	62.7	62.7	62.7	94	60.9	0	2	68	0.00	29.645 
04:00	62.9	62.9	62.9	94	61.1	0	3	68	0.00	29.711 
04:05	62.9	62.9	62.9	94	61.1	0	0	---	0.00	29.711 
04:10	62.9	62.9	62.9	94	61.1	0	1	68	0.00	29.711 
04:15	62.9	62.9	62.9	94	61.1	0	1	68	0.00	29.707 
04:20	62.9	62.9	62.9	94	61.1	0	1	68	0.00	29.707 
04:25	62.9	62.9	62.9	94	61.1	0	0	---	0.00	29.707 
04:30	62.9	62.9	62.9	94	61.1	0	0	---	0.00	29.725 
04:35	62.9	62.9	62.9	95	61.4	0	0	---	0.00	29.725 
04:40	62.9	62.9	62.9	95	61.4	0	1	68	0.00	29.725 
04:45	62.9	62.9	62.9	95	61.4	0	1	68	0.00	29.726 
04:50	62.9	62.9	62.9	95	61.4	0	0	---	0.00	29.726 
04:55	62.7	62.7	62.7	95	61.2	0	0	---	0.00	29.726 
05:00	62.7	62.7	62.7	95	61.2	0	1	68	0.00	29.725 
05:05	62.7	62.7	62.7	95	61.2	0	0	---	0.00	29.725 
05:10	62.7	62.7	62.7	95	61.2	0	0	---	0.00	29.725 
05:15	62.7	62.7	62.7	95	61.2	0	1	68	0.00	29.724 
05:20	62.6	62.6	62.6	95	61.1	0	1	68	0.00	29.724 
05:25	62.6	62.6	62.6	95	61.1	0	0	---	0.00	29.724 
05:30	62.6	62.6	62.6	95	61.1	0	0	---	0.00	29.726 
05:35	62.6	62.6	62.6	95	61.1	0	3	68	0.00	29.726 
05:40	62.6	62.6	62.6	95	61.1	0	1	68	0.00	29.726 
05:45	62.4	62.4	62.4	95	60.9	0	0	---	0.00	29.725 
05:50	62.4	62.4	62.4	95	60.9	0	0	---	0.00	29.725 
05:55	62.4	62.4	62.4	95	60.9	0	0	---	0.00	29.725 
06:00	62.4	62.4	62.4	95	60.9	0	0	---	0.00	29.731 
06:05	62.4	62.4	62.4	95	60.9	0	1	68	0.00	29.731 
06:10	62.4	62.4	62.4	95	60.9	0	0	---	0.00	29.731 
06:15	62.4	62.4	62.4	95	60.9	0	0	---	0.00	29.734 
06:20	62.4	62.4	62.4	95	60.9	0	0	---	0.00	29.734 
06:25	62.4	62.4	62.4	95	60.9	0	0	---	0.00	29.734 
06:30	62.3	62.3	62.3	95	60.8	0	0	---	0.00	29.737 
06:35	62.3	62.3	62.3	95	60.8	0	0	---	0.00	29.737 
06:40	62.3	62.3	62.3	95	60.8	0	0	---	0.00	29.737 
06:45	62.3	62.3	62.3	95	60.8	0	0	---	0.00	29.735 
06:50	62.1	62.1	62.1	95	60.6	0	0	---	0.00	29.735 
06:55	62.3	62.3	62.3	95	60.8	0	0	---	0.00	29.735 
07:00	62.3	62.3	62.3	95	60.8	0	0	---	0.00	29.745 
07:05	62.3	62.3	62.3	95	60.8	0	0	---	0.00	29.745 
07:10	62.3	62.3	62.3	95	60.8	0	1	68	0.00	29.745 
07:15	62.3	62.3	62.3	95	60.8	0	0	---	0.00	29.745 
07:20	62.4	62.4	62.4	95	60.9	0	0	---	0.00	29.745 
07:25	62.4	62.4	62.4	96	61.2	0	0	---	0.00	29.745 
07:30	62.6	62.6	62.6	96	61.4	0	0	---	0.00	29.750 
07:35	62.6	62.6	62.6	96	61.4	0	0	---	0.00	29.750 
07:40	62.9	62.9	62.9	96	61.7	0	0	---	0.00	29.750 
07:45	63.1	63.1	63.1	96	61.9	0	1	68	0.00	29.753 
07:50	63.4	63.4	63.4	96	62.2	0	1	68	0.00	29.753 
07:55	63.7	63.7	63.7	96	62.5	0	1	68	0.00	29.753 
08:00	64.0	64.0	64.0	96	62.8	0	1	68	0.00	29.758 
08:05	64.3	64.3	64.3	96	63.1	0	0	---	0.00	29.758 
08:10	64.7	64.7	64.7	96	63.5	0	1	68	0.00	29.758 
08:15	64.7	64.7	64.7	96	63.5	0	0	---	0.00	29.767 
08:20	64.7	64.7	64.7	96	63.5	0	1	68	0.00	29.767 
08:25	65.0	65.0	65.0	96	63.8	0	1	68	0.00	29.767 
08:30	65.2	65.2	65.2	96	64.0	0	1	68	0.00	29.759 
08:35	65.3	65.3	65.3	96	64.1	0	1	68	0.00	29.759 
08:40	65.5	65.5	65.5	95	64.0	0	1	68	0.00	29.759 
08:45	65.6	65.6	65.6	95	64.1	0	1	68	0.00	29.759 
08:50	66.0	66.0	66.0	96	64.8	0	1	68	0.00	29.759 
08:55	66.1	66.1	66.1	95	64.6	0	1	68	0.00	29.759 
09:00	66.3	66.3	66.3	95	64.8	0	1	68	0.00	29.772 
09:05	66.3	66.3	66.3	95	64.8	0	0	---	0.00	29.772 
09:10	66.6	66.6	66.6	95	65.1	0	0	---	0.00	29.772 
09:15	66.8	66.8	66.8	95	65.3	0	2	68	0.00	29.773 
09:20	66.9	66.9	66.9	95	65.4	0	3	292	0.00	29.773 
09:25	67.1	67.1	67.1	95	65.6	1	3	292	0.00	29.773 
09:30	67.1	67.1	67.1	95	65.6	0	4	292	0.00	29.772 
09:35	67.1	67.1	67.1	94	65.3	0	4	292	0.00	29.772 
09:40	67.1	67.1	67.1	94	65.3	0	1	292	0.00	29.772 
09:45	67.3	67.3	67.3	94	65.5	0	2	292	0.00	29.774 
09:50	67.6	67.6	67.6	94	65.8	0	1	292	0.00	29.774 
09:55	67.8	67.8	67.8	93	65.7	0	2	292	0.00	29.774 
10:00	67.9	67.9	67.9	93	65.8	0	2	292	0.00	29.774 
10:05	68.3	68.3	68.3	93	66.2	0	2	292	0.00	29.774 
10:10	68.4	68.4	68.4	92	66.0	0	2	292	0.00	29.774 
10:15	69.1	69.1	69.1	92	66.7	1	4	292	0.00	29.776 
10:20	69.4	69.4	69.4	91	66.7	0	2	292	0.00	29.776 
10:25	69.8	69.8	69.8	89	66.4	1	4	292	0.00	29.776 
10:30	70.1	70.1	70.1	88	66.4	1	4	292	0.00	29.775 
10:35	70.1	70.1	70.1	87	66.0	1	3	292	0.00	29.775 
10:40	70.6	70.6	70.6	86	66.2	1	3	292	0.00	29.775 
10:45	71.1	71.1	71.1	85	66.4	0	2	292	0.00	29.774 
10:50	71.8	71.8	71.8	84	66.7	0	2	292	0.00	29.774 
10:55	72.1	72.1	72.1	82	66.3	1	4	292	0.00	29.774 
11:00	72.1	72.1	72.1	81	65.9	2	3	292	0.00	29.773 
11:05	72.3	72.3	72.3	81	66.1	2	4	292	0.00	29.773 
11:10	72.8	72.8	72.8	80	66.3	1	3	292	0.00	29.773 
11:15	73.3	73.3	73.3	80	66.7	0	3	292	0.00	29.773 
11:20	73.9	73.9	73.9	78	66.6	2	4	292	0.00	29.773 
11:25	74.4	74.4	74.4	77	66.7	0	2	292	0.00	29.773 
11:30	74.4	74.4	74.4	75	65.9	1	4	292	0.00	29.774 
11:35	74.6	74.6	74.6	74	65.7	1	3	292	0.00	29.774 
11:40	74.9	74.9	74.9	75	66.4	0	4	292	0.00	29.774 
11:45	75.3	75.3	76.8	72	65.6	0	2	292	0.00	29.773 
11:50	75.8	75.8	77.3	72	66.1	1	3	292	0.00	29.773 
11:55	76.3	76.3	77.9	72	66.6	0	2	292	0.00	29.773 
12:00	76.5	76.5	78.2	71	66.4	1	3	292	0.00	29.771 
12:05	76.5	76.5	78.2	70	66.0	1	3	292	0.00	29.771 
12:10	76.8	76.8	78.5	70	66.3	1	3	292	0.00	29.771 
12:15	77.2	77.2	79.0	70	66.6	1	3	292	0.00	29.773 
12:20	77.4	77.4	79.2	67	65.6	1	4	292	0.00	29.773 
12:25	77.7	77.7	79.6	66	65.4	1	4	292	0.00	29.773 
12:30	78.1	78.1	80.0	67	66.2	1	3	292	0.00	29.770 
12:35	78.6	78.6	80.6	66	66.3	0	1	292	0.00	29.770 
12:40	78.5	78.5	80.4	64	65.3	2	4	292	0.00	29.770 
12:45	78.5	78.5	80.4	64	65.3	2	5	292	0.00	29.770 
12:50	78.5	78.5	80.4	65	65.7	1	4	292	0.00	29.770 
12:55	78.6	78.6	80.4	63	64.9	1	3	292	0.00	29.770 
13:00	78.8	78.8	80.6	62	64.7	1	3	292	0.00	29.769 
13:05	79.2	79.2	81.1	62	65.0	1	5	292	0.00	29.769 
13:10	79.6	79.6	81.5	62	65.4	1	3	292	0.00	29.769 
13:15	79.8	79.8	81.6	60	64.7	1	4	292	0.00	29.779 
13:20	80.3	80.3	82.1	59	64.6	1	4	292	0.00	29.779 
13:25	80.3	80.3	81.7	56	63.1	2	4	292	0.00	29.779 
13:30	80.1	80.1	81.6	57	63.5	2	5	292	0.00	29.780 
13:35	80.3	80.3	81.9	58	64.2	2	5	292	0.00	29.780 
13:40	80.1	80.1	81.5	56	63.0	3	6	292	0.00	29.780 
13:45	80.1	80.1	81.7	58	64.0	2	6	292	0.00	29.779 
13:50	80.7	80.7	82.3	57	64.0	1	5	292	0.00	29.779 
13:55	81.1	81.1	82.9	58	64.9	2	7	270	0.00	29.779 
14:00	81.1	81.1	82.2	53	62.3	2	4	270	0.00	29.777 
14:05	81.2	81.2	82.7	56	64.0	2	6	270	0.00	29.777 
14:10	81.1	81.1	82.1	52	61.8	3	7	270	0.00	29.777 
14:15	80.9	80.9	81.9	52	61.6	4	6	270	0.00	29.778 
14:20	80.5	80.5	81.5	52	61.2	2	5	270	0.00	29.778 
14:25	80.5	80.5	81.7	54	62.3	2	4	292	0.00	29.778 
14:30	80.9	80.9	82.3	55	63.2	2	4	292	0.00	29.778 
14:35	80.7	80.7	81.9	54	62.5	2	5	315	0.00	29.778 
14:40	80.5	80.5	81.5	52	61.2	2	5	270	0.00	29.778 
14:45	80.7	80.7	81.8	53	62.0	1	4	270	0.00	29.777 
14:50	81.2	81.2	81.8	49	60.2	2	5	315	0.00	29.777 
14:55	81.6	81.6	82.3	50	61.1	1	4	315	0.00	29.777 
15:00	82.2	82.2	82.7	48	60.5	3	7	292	0.00	29.773 
15:05	82.0	82.0	82.2	46	59.1	2	5	270	0.00	29.773 
15:10	82.0	82.0	82.5	48	60.3	2	5	270	0.00	29.773 
15:15	82.0	82.0	82.2	46	59.1	2	6	270	0.00	29.769 
15:20	81.8	81.8	81.8	44	57.7	4	10	270	0.00	29.769 
15:25	81.8	81.8	82.0	46	59.0	2	5	270	0.00	29.769 
15:30	82.0	82.0	82.2	46	59.1	3	6	270	0.00	29.767 
15:35	82.2	82.2	82.5	47	59.9	1	4	292	0.00	29.767 
15:40	82.2	82.2	82.5	47	59.9	3	5	292	0.00	29.767 
15:45	82.0	82.0	82.5	48	60.3	2	5	292	0.00	29.765 
15:50	82.4	82.4	82.7	47	60.1	2	6	270	0.00	29.765 
15:55	83.0	83.0	83.1	45	59.4	2	6	270	0.00	29.765 
16:00	83.2	83.2	83.6	47	60.8	3	9	270	0.00	29.762 
16:05	82.8	82.8	83.3	48	61.1	3	6	338	0.00	29.762 
16:10	82.2	82.2	82.8	49	61.1	3	7	338	0.00	29.762 
16:15	82.4	82.4	83.0	49	61.3	3	7	292	0.00	29.762 
16:20	82.2	82.2	83.0	50	61.7	2	6	292	0.00	29.762 
16:25	81.4	81.4	82.1	50	60.9	2	6	270	0.00	29.762 
16:30	81.1	81.1	81.8	50	60.7	4	7	270	0.00	29.760 
16:35	80.7	80.7	81.4	50	60.3	3	9	292	0.00	29.760 
16:40	80.7	80.7	81.3	49	59.7	4	6	292	0.00	29.760 
16:45	80.7	80.7	81.4	50	60.3	3	7	292	0.00	29.763 
16:50	81.2	81.2	81.6	47	59.0	3	7	315	0.00	29.763 
16:55	81.2	81.2	81.6	47	59.0	3	7	292	0.00	29.763 
17:00	81.4	81.4	81.5	45	58.0	3	6	292	0.00	29.766 
17:05	81.4	81.4	81.6	46	58.6	3	6	270	0.00	29.766 
17:10	81.4	81.4	81.4	44	57.4	3	6	315	0.00	29.766 
17:15	81.4	81.4	81.6	46	58.6	2	5	315	0.00	29.776 
17:20	81.4	81.4	81.8	47	59.2	2	6	315	0.00	29.776 
17:25	81.6	81.6	81.6	44	57.5	3	7	270	0.00	29.776 
17:30	81.6	81.6	81.8	46	58.8	2	5	270	0.00	29.777 
17:35	81.2	81.2	81.6	47	59.0	3	6	292	0.00	29.777 
17:40	80.9	80.9	81.4	48	59.3	2	5	315	0.00	29.777 
17:45	80.7	80.7	81.0	46	58.0	3	7	315	0.00	29.782 
17:50	80.7	80.7	80.9	45	57.4	3	6	270	0.00	29.782 
17:55	80.7	80.7	80.9	45	57.4	3	6	270	0.00	29.782 
18:00	80.5	80.5	80.6	44	56.6	3	6	270	0.00	29.783 
18:05	80.5	80.5	80.7	45	57.2	2	5	270	0.00	29.783 
18:10	80.3	80.3	80.7	46	57.6	3	7	292	0.00	29.783 
18:15	79.9	79.9	80.2	44	56.0	3	6	292	0.00	29.788 
18:20	79.6	79.6	80.0	44	55.7	3	9	270	0.00	29.788 
18:25	79.2	79.2	79.6	43	54.7	3	7	315	0.00	29.788 
18:30	78.8	78.8	79.3	42	53.7	3	9	292	0.00	29.797 
18:35	78.6	78.6	79.2	43	54.2	3	7	338	0.00	29.797 
18:40	78.6	78.6	79.2	42	53.6	3	7	292	0.00	29.797 
18:45	78.5	78.5	79.1	42	53.5	2	5	270	0.00	29.799 
18:50	78.3	78.3	78.9	40	52.0	3	5	292	0.00	29.799 
18:55	78.3	78.3	78.8	38	50.6	3	7	315	0.00	29.799 
19:00	78.1	78.1	78.7	39	51.1	3	5	292	0.00	29.802 
19:05	78.1	78.1	78.7	39	51.1	2	6	338	0.00	29.802 
19:10	77.9	77.9	78.7	40	51.6	2	5	338	0.00	29.802 
19:15	78.1	78.1	78.9	42	53.1	0	2	338	0.00	29.802 
19:20	78.1	78.1	78.9	42	53.1	0	2	338	0.00	29.802 
19:25	77.9	77.9	78.7	41	52.3	1	4	315	0.00	29.802 
19:30	77.7	77.7	78.6	41	52.1	2	4	315	0.00	29.809 
19:35	77.4	77.4	78.5	41	51.8	1	4	315	0.00	29.809 
19:40	77.2	77.2	78.5	43	52.9	0	2	315	0.00	29.809 
19:45	76.8	76.8	78.3	43	52.6	0	2	315	0.00	29.813 
19:50	76.5	76.5	78.1	43	52.3	1	3	315	0.00	29.813 
19:55	76.0	76.0	77.9	42	51.2	1	4	315	0.00	29.813 
20:00	75.6	75.6	77.7	42	50.9	0	2	315	0.00	29.815 
20:05	75.3	75.3	77.7	43	51.2	0	2	315	0.00	29.815 
20:10	75.1	75.1	77.6	44	51.7	0	1	315	0.00	29.815 
20:15	74.7	74.7	74.7	44	51.3	0	2	315	0.00	29.820 
20:20	74.4	74.4	74.4	46	52.3	0	1	315	0.00	29.820 
20:25	73.9	73.9	73.9	45	51.2	0	2	315	0.00	29.820 
20:30	73.7	73.7	73.7	46	51.6	0	3	315	0.00	29.825 
20:35	73.3	73.3	73.3	46	51.3	0	2	315	0.00	29.825 
20:40	73.2	73.2	73.2	47	51.7	0	1	315	0.00	29.825 
20:45	73.0	73.0	73.0	47	51.6	0	1	315	0.00	29.830 
20:50	72.8	72.8	72.8	47	51.4	0	1	315	0.00	29.830 
20:55	72.5	72.5	72.5	47	51.1	0	1	315	0.00	29.830 
21:00	72.3	72.3	72.3	48	51.5	0	1	315	0.00	29.833 
21:05	72.0	72.0	72.0	49	51.8	0	0	---	0.00	29.833 
21:10	71.6	71.6	71.6	50	52.0	0	0	---	0.00	29.833 
21:15	71.3	71.3	71.3	50	51.7	0	0	---	0.00	29.834 
21:20	71.1	71.1	71.1	50	51.5	0	0	---	0.00	29.834 
21:25	70.8	70.8	70.8	51	51.8	0	0	---	0.00	29.834 
21:30	70.6	70.6	70.6	51	51.6	0	0	---	0.00	29.835 
21:35	70.3	70.3	70.3	51	51.3	0	0	---	0.00	29.835 
21:40	69.9	69.9	69.9	52	51.5	0	0	---	0.00	29.835 
21:45	69.6	69.6	69.6	54	52.2	0	0	---	0.00	29.840 
21:50	69.3	69.3	69.3	55	52.4	0	0	---	0.00	29.840 
21:55	68.9	68.9	68.9	55	52.1	0	0	---	0.00	29.840 
22:00	68.6	68.6	68.6	57	52.7	0	0	---	0.00	29.848 
22:05	68.3	68.3	68.3	58	52.9	0	0	---	0.00	29.848 
22:10	67.9	67.9	67.9	59	53.0	0	0	---	0.00	29.848 
22:15	67.6	67.6	67.6	60	53.2	0	0	---	0.00	29.846 
22:20	67.3	67.3	67.3	61	53.4	0	0	---	0.00	29.846 
22:25	66.9	66.9	66.9	62	53.4	0	0	---	0.00	29.846 
22:30	66.8	66.8	66.8	62	53.4	0	0	---	0.00	29.850 
22:35	66.4	66.4	66.4	63	53.4	0	0	---	0.00	29.850 
22:40	66.3	66.3	66.3	64	53.7	0	0	---	0.00	29.850 
22:45	66.0	66.0	66.0	65	53.9	0	0	---	0.00	29.861 
22:50	65.6	65.6	65.6	65	53.5	0	0	---	0.00	29.861 
22:55	65.3	65.3	65.3	65	53.2	0	0	---	0.00	29.861 
23:00	65.0	65.0	65.0	66	53.4	0	0	---	0.00	29.864 
23:05	64.7	64.7	64.7	67	53.5	0	0	---	0.00	29.864 
23:10	64.5	64.5	64.5	68	53.7	0	0	---	0.00	29.864 
23:15	64.2	64.2	64.2	69	53.8	0	0	---	0.00	29.863 
23:20	63.9	63.9	63.9	71	54.3	0	0	---	0.00	29.863 
23:25	63.7	63.7	63.7	72	54.5	0	0	---	0.00	29.863 
23:30	63.4	63.4	63.4	73	54.6	0	0	---	0.00	29.861 
23:35	63.2	63.2	63.2	75	55.1	0	0	---	0.00	29.861 
23:40	63.1	63.1	63.1	75	55.0	0	0	---	0.00	29.861 
23:45	62.7	62.7	62.7	76	55.0	0	0	---	0.00	29.862 
23:50	62.6	62.6	62.6	76	54.9	0	0	---	0.00	29.862 
23:55	62.4	62.4	62.4	77	55.1	0	0	---	0.00	29.862 

CoCoRaHS
IN-AL-39
A2 Web Hosting
Creative Commons License
GoDaddy
search engine by freefind advanced

loaded 2018-11-19 19:13:30 • last modified 2010-11-18 10:43:29
Privacy PolicyDisclaimer
• wx.awcolley.com is powered by PmWiki v.2002016 •
• all content (unless otherwise noted) © 2018 A W Colley